Time;durP1;ratioP1;P1;durP2;ratioP2;P2;SDS_P1;SDS_P2;PMS_P1;PMS_P2;Temp;Humidity;BMP_temperature;BMP_pressure;BME280_temperature;BME280_humidity;BME280_pressure;Samples;Min_cycle;Max_cycle;Signal;HPM_P1;HPM_P2
2022/04/11 00:00:48;;;;;;;9.57;8.55;;;-0.10;99.90;;;;;;4991657;28;20052;-77
2022/04/11 00:03:15;;;;;;;12.32;8.50;;;-0.20;99.90;;;;;;5013151;28;20048;-77
2022/04/11 00:05:41;;;;;;;10.02;8.57;;;-0.30;99.90;;;;;;5004824;28;20046;-78
2022/04/11 00:08:07;;;;;;;11.85;8.60;;;-0.20;99.90;;;;;;5023837;28;20029;-76
2022/04/11 00:10:34;;;;;;;11.57;9.75;;;-0.10;99.90;;;;;;5013178;28;20032;-77
2022/04/11 00:13:05;;;;;;;11.45;9.82;;;-0.10;99.90;;;;;;5013643;28;20045;-77
2022/04/11 00:15:33;;;;;;;15.35;8.98;;;-0.20;99.90;;;;;;5028969;28;20030;-78
2022/04/11 00:18:02;;;;;;;10.90;8.38;;;-0.20;99.90;;;;;;5013331;28;20041;-77
2022/04/11 00:20:30;;;;;;;11.80;8.95;;;-0.30;99.90;;;;;;5031982;28;20486;-77
2022/04/11 00:22:56;;;;;;;12.70;9.70;;;-0.20;99.90;;;;;;5013595;28;20045;-76
2022/04/11 00:25:23;;;;;;;9.88;8.88;;;-0.20;99.90;;;;;;5028989;28;20101;-77
2022/04/11 00:27:52;;;;;;;15.07;8.95;;;-0.10;99.90;;;;;;4992774;28;1079535;-77
2022/04/11 00:30:19;;;;;;;12.88;9.80;;;-0.20;99.90;;;;;;5035277;28;20379;-77
2022/04/11 00:32:45;;;;;;;8.52;7.72;;;-0.20;99.90;;;;;;5017931;28;20041;-77
2022/04/11 00:35:13;;;;;;;8.70;7.80;;;-0.20;99.90;;;;;;5018375;28;20041;-77
2022/04/11 00:37:40;;;;;;;11.15;8.30;;;-0.20;99.90;;;;;;5016937;28;20052;-77
2022/04/11 00:40:08;;;;;;;8.95;8.05;;;-0.20;99.90;;;;;;5034651;28;20033;-77
2022/04/11 00:42:34;;;;;;;8.15;7.45;;;-0.30;99.90;;;;;;5006601;28;20056;-77
2022/04/11 00:45:01;;;;;;;11.80;8.98;;;-0.20;99.90;;;;;;5036437;28;20040;-77
2022/04/11 00:47:28;;;;;;;10.05;9.05;;;-0.20;99.90;;;;;;5017402;28;20475;-77
2022/04/11 00:50:02;;;;;;;10.98;8.77;;;-0.20;99.90;;;;;;5018249;28;20406;-77
2022/04/11 00:52:31;;;;;;;10.20;8.40;;;-0.30;99.90;;;;;;5034347;28;20040;-76
2022/04/11 00:54:58;;;;;;;9.40;8.52;;;-0.30;99.90;;;;;;5035926;28;20030;-77
2022/04/11 00:57:25;;;;;;;11.75;9.77;;;-0.30;99.90;;;;;;5017401;28;20037;-77
2022/04/11 00:59:52;;;;;;;11.57;10.27;;;-0.30;99.90;;;;;;5016536;28;20037;-77
2022/04/11 01:02:18;;;;;;;11.35;10.13;;;-0.20;99.90;;;;;;5030179;28;20471;-76
2022/04/11 01:04:45;;;;;;;12.05;9.05;;;-0.30;99.90;;;;;;5031033;28;20041;-77
2022/04/11 01:07:11;;;;;;;13.25;11.40;;;-0.20;99.90;;;;;;5033116;28;20036;-77
2022/04/11 01:09:37;;;;;;;16.85;10.65;;;-0.20;99.90;;;;;;5029783;28;20478;-77
2022/04/11 01:12:04;;;;;;;16.77;10.63;;;-0.20;99.90;;;;;;5017741;28;20045;-77
2022/04/11 01:14:31;;;;;;;14.65;10.60;;;-0.20;99.90;;;;;;5034847;28;20033;-79
2022/04/11 01:16:58;;;;;;;11.90;10.68;;;-0.10;99.90;;;;;;5012206;28;20041;-77
2022/04/11 01:19:26;;;;;;;11.25;9.55;;;0.00;99.90;;;;;;5028497;28;20053;-77
2022/04/11 01:21:54;;;;;;;12.20;9.63;;;-0.10;99.90;;;;;;5016638;28;20430;-77
2022/04/11 01:24:22;;;;;;;11.63;10.02;;;-0.10;99.90;;;;;;5001092;28;20045;-77
2022/04/11 01:26:50;;;;;;;11.50;10.27;;;0.00;99.90;;;;;;5008243;28;20060;-77
2022/04/11 01:29:19;;;;;;;13.13;10.07;;;0.00;99.90;;;;;;5018539;28;20041;-77
2022/04/11 01:31:46;;;;;;;16.88;9.73;;;0.00;99.90;;;;;;5019133;28;20060;-77
2022/04/11 01:34:14;;;;;;;11.63;10.50;;;0.10;99.90;;;;;;5002527;28;20045;-77
2022/04/11 01:36:41;;;;;;;18.95;9.10;;;0.10;99.90;;;;;;5015915;28;20037;-77
2022/04/11 01:39:10;;;;;;;9.63;8.15;;;0.10;99.90;;;;;;5018316;28;20046;-77
2022/04/11 01:41:37;;;;;;;18.60;8.88;;;0.20;99.90;;;;;;5016628;28;20038;-77
2022/04/11 01:44:04;;;;;;;9.77;8.60;;;0.30;99.90;;;;;;5035436;28;20046;-77
2022/04/11 01:46:30;;;;;;;10.50;9.13;;;0.20;99.90;;;;;;5014843;28;20041;-77
2022/04/11 01:49:07;;;;;;;12.02;9.38;;;0.20;99.90;;;;;;5001716;28;20041;-77
2022/04/11 01:51:33;;;;;;;10.20;9.20;;;0.20;99.90;;;;;;5020015;28;20041;-79
2022/04/11 01:53:59;;;;;;;10.63;8.80;;;0.30;99.90;;;;;;5016866;28;20933;-77
2022/04/11 01:56:25;;;;;;;9.35;8.50;;;0.30;99.90;;;;;;5016054;28;20046;-77
2022/04/11 01:58:52;;;;;;;9.82;8.35;;;0.30;99.90;;;;;;5007351;28;20648;-76
2022/04/11 02:01:19;;;;;;;9.75;8.75;;;0.30;99.90;;;;;;5017578;28;20045;-76
2022/04/11 02:03:45;;;;;;;9.80;8.95;;;0.30;99.90;;;;;;4997014;28;20050;-77
2022/04/11 02:06:11;;;;;;;13.35;9.93;;;0.30;99.90;;;;;;5015542;28;20376;-77
2022/04/11 02:08:38;;;;;;;10.40;9.45;;;0.30;99.90;;;;;;5015732;28;20041;-76
2022/04/11 02:11:10;;;;;;;;;;;0.30;99.90;;;;;;5017970;28;20044;-77
2022/04/11 02:13:37;;;;;;;11.23;10.15;;;0.20;99.90;;;;;;5015258;28;19909;-78
2022/04/11 02:16:04;;;;;;;11.80;10.13;;;0.20;99.90;;;;;;5015674;28;20395;-77
2022/04/11 02:18:30;;;;;;;12.18;10.50;;;0.20;99.90;;;;;;5007536;28;20482;-77
2022/04/11 02:20:56;;;;;;;10.98;9.88;;;0.20;99.90;;;;;;4995475;28;20038;-77
2022/04/11 02:23:23;;;;;;;11.90;10.52;;;0.20;99.90;;;;;;5015245;28;20478;-76
2022/04/11 02:25:49;;;;;;;12.43;10.57;;;0.30;99.90;;;;;;5033639;28;20510;-76
2022/04/11 02:28:15;;;;;;;12.27;10.15;;;0.40;99.90;;;;;;5013869;28;20046;-77
2022/04/11 02:30:42;;;;;;;18.80;10.82;;;0.40;99.90;;;;;;5009544;28;20048;-77
2022/04/11 02:33:09;;;;;;;11.60;10.60;;;0.40;99.90;;;;;;5029393;28;20033;-77
2022/04/11 02:35:35;;;;;;;15.98;11.02;;;0.40;99.90;;;;;;5029402;28;20394;-77
2022/04/11 02:38:02;;;;;;;12.68;10.00;;;0.40;99.90;;;;;;5026534;28;20052;-77
2022/04/11 02:40:28;;;;;;;14.23;10.55;;;0.30;99.90;;;;;;5018328;28;20042;-77
2022/04/11 02:43:12;;;;;;;12.90;10.85;;;0.40;99.90;;;;;;5013509;28;20483;-77
2022/04/11 02:45:46;;;;;;;11.48;10.27;;;0.40;99.90;;;;;;5014647;28;20044;-77
2022/04/11 02:48:15;;;;;;;12.45;10.90;;;0.40;99.90;;;;;;5024154;28;20041;-77
2022/04/11 02:50:49;;;;;;;12.88;10.10;;;0.40;99.90;;;;;;5014596;28;20037;-77
2022/04/11 02:53:19;;;;;;;10.55;9.60;;;0.40;99.90;;;;;;5014820;28;20053;-78
2022/04/11 02:55:45;;;;;;;10.32;9.38;;;0.40;99.90;;;;;;5010042;28;20034;-77
2022/04/11 02:58:11;;;;;;;10.05;9.13;;;0.50;99.90;;;;;;5013527;28;20046;-77
2022/04/11 03:00:41;;;;;;;11.63;10.07;;;0.50;99.90;;;;;;5014408;28;20048;-77
2022/04/11 03:03:10;;;;;;;11.88;10.73;;;0.60;99.90;;;;;;5014611;28;20048;-77
2022/04/11 03:05:38;;;;;;;12.07;10.75;;;0.60;99.90;;;;;;5030680;28;20478;-78
2022/04/11 03:08:07;;;;;;;11.98;10.80;;;0.60;99.90;;;;;;5027605;28;20037;-77
2022/04/11 03:10:33;;;;;;;12.57;11.00;;;0.60;99.90;;;;;;5032371;28;20371;-78
2022/04/11 03:13:04;;;;;;;9.02;8.05;;;0.60;99.90;;;;;;5014545;28;20498;-76
2022/04/11 03:15:32;;;;;;;13.13;11.68;;;0.60;99.90;;;;;;5014673;28;20041;-77
2022/04/11 03:17:59;;;;;;;16.98;11.02;;;0.60;99.90;;;;;;5013380;28;20757;-76
2022/04/11 03:20:26;;;;;;;12.45;11.25;;;0.50;99.90;;;;;;5014839;28;20049;-76
2022/04/11 03:22:53;;;;;;;14.18;9.93;;;0.50;99.90;;;;;;5011471;28;20044;-77
2022/04/11 03:25:20;;;;;;;11.10;10.10;;;0.60;99.90;;;;;;5024433;28;20042;-77
2022/04/11 03:27:48;;;;;;;12.18;10.95;;;0.60;99.90;;;;;;4992786;28;20419;-77
2022/04/11 03:30:16;;;;;;;15.50;10.73;;;0.50;99.90;;;;;;4996320;28;20048;-77
2022/04/11 03:32:42;;;;;;;12.30;11.25;;;0.50;99.90;;;;;;5016149;28;20049;-77
2022/04/11 03:35:11;;;;;;;11.93;10.73;;;0.40;99.90;;;;;;4998231;28;20045;-77
2022/04/11 03:37:39;;;;;;;12.85;10.80;;;0.50;99.90;;;;;;5012930;28;20040;-77
2022/04/11 03:40:15;;;;;;;13.75;11.55;;;0.40;99.90;;;;;;5011135;28;20034;-76
2022/04/11 03:42:42;;;;;;;13.05;11.10;;;0.40;99.90;;;;;;5026282;28;20041;-77
2022/04/11 03:45:10;;;;;;;11.50;10.13;;;0.40;99.90;;;;;;4997841;28;20053;-77
2022/04/11 03:47:38;;;;;;;11.05;10.00;;;0.40;99.90;;;;;;5010896;28;20060;-77
2022/04/11 03:50:06;;;;;;;12.27;10.98;;;0.40;99.90;;;;;;5021402;28;20494;-77
2022/04/11 03:52:36;;;;;;;12.73;10.68;;;0.40;99.90;;;;;;5013469;28;20517;-76
2022/04/11 03:55:08;;;;;;;12.18;9.77;;;0.30;99.90;;;;;;5014316;28;20045;-76
2022/04/11 03:57:35;;;;;;;12.32;11.10;;;0.30;99.90;;;;;;5011937;28;20046;-76
2022/04/11 04:00:04;;;;;;;12.55;11.32;;;0.30;99.90;;;;;;5014792;28;20044;-76
2022/04/11 04:02:46;;;;;;;11.35;10.18;;;0.20;99.90;;;;;;5031145;28;20045;-75
2022/04/11 04:05:16;;;;;;;11.65;10.27;;;0.10;99.90;;;;;;5010535;28;20057;-76
2022/04/11 04:07:42;;;;;;;11.27;10.05;;;0.10;99.90;;;;;;4994748;28;20058;-77
2022/04/11 04:10:09;;;;;;;11.18;10.27;;;0.00;99.90;;;;;;5029965;28;20026;-76
2022/04/11 04:12:37;;;;;;;11.65;10.48;;;0.00;99.90;;;;;;5017491;28;20117;-78
2022/04/11 04:15:14;;;;;;;11.20;10.15;;;0.00;99.90;;;;;;5026541;28;20041;-76
2022/04/11 04:17:47;;;;;;;12.75;11.55;;;-0.10;99.90;;;;;;4990414;28;20046;-75
2022/04/11 04:20:14;;;;;;;11.95;10.55;;;-0.10;99.90;;;;;;5013674;28;20037;-76
2022/04/11 04:22:41;;;;;;;12.60;11.38;;;-0.10;99.90;;;;;;5013190;28;20432;-75
2022/04/11 04:25:09;;;;;;;19.15;12.13;;;-0.10;99.90;;;;;;5010161;28;20054;-76
2022/04/11 04:27:35;;;;;;;14.23;12.05;;;-0.20;99.90;;;;;;5023886;28;20487;-78
2022/04/11 04:30:04;;;;;;;14.18;12.05;;;-0.20;99.90;;;;;;5013390;28;20375;-77
2022/04/11 04:32:31;;;;;;;13.15;11.85;;;-0.30;99.90;;;;;;5010027;28;20034;-77
2022/04/11 04:34:57;;;;;;;12.35;11.32;;;-0.30;99.90;;;;;;5031048;28;20148;-76
2022/04/11 04:37:26;;;;;;;13.93;12.32;;;-0.40;99.90;;;;;;4995325;28;20045;-77
2022/04/11 04:39:53;;;;;;;14.07;12.55;;;-0.40;99.90;;;;;;5025036;28;20037;-76
2022/04/11 04:42:23;;;;;;;13.25;11.98;;;-0.40;99.90;;;;;;5008417;28;20042;-77
2022/04/11 04:44:55;;;;;;;14.05;12.15;;;-0.40;99.90;;;;;;5012661;28;20049;-77
2022/04/11 04:47:25;;;;;;;22.13;11.70;;;-0.50;99.90;;;;;;5022504;28;20053;-77
2022/04/11 04:49:52;;;;;;;14.93;12.32;;;-0.50;99.90;;;;;;4996852;28;20033;-78
2022/04/11 04:52:20;;;;;;;13.05;11.30;;;-0.50;99.90;;;;;;5013350;28;20049;-77
2022/04/11 04:54:56;;;;;;;12.55;11.18;;;-0.50;99.90;;;;;;5012643;28;20129;-78
2022/04/11 04:57:22;;;;;;;14.48;12.63;;;-0.60;99.90;;;;;;4995477;28;20050;-77
2022/04/11 04:59:49;;;;;;;16.67;13.00;;;-0.60;99.90;;;;;;5012078;28;20041;-77
2022/04/11 05:02:21;;;;;;;11.73;10.63;;;-0.60;99.90;;;;;;5020095;28;20041;-77
2022/04/11 05:04:48;;;;;;;13.85;12.25;;;-0.60;99.90;;;;;;5013047;28;20529;-77
2022/04/11 05:07:14;;;;;;;13.70;12.23;;;-0.50;99.90;;;;;;5011683;28;20390;-77
2022/04/11 05:09:42;;;;;;;15.88;12.30;;;-0.60;99.90;;;;;;5012582;28;20042;-77
2022/04/11 05:12:09;;;;;;;14.05;11.90;;;-0.60;99.90;;;;;;5030944;28;20038;-77
2022/04/11 05:14:37;;;;;;;11.73;10.63;;;-0.60;99.90;;;;;;5024491;28;20040;-77
2022/04/11 05:17:10;;;;;;;12.98;11.63;;;-0.60;99.90;;;;;;5013783;28;20064;-77
2022/04/11 05:19:37;;;;;;;15.70;12.90;;;-0.50;99.90;;;;;;5016524;28;20116;-79
2022/04/11 05:22:06;;;;;;;13.73;11.07;;;-0.40;99.90;;;;;;5000984;28;20042;-78
2022/04/11 05:24:33;;;;;;;13.38;12.20;;;-0.30;99.90;;;;;;4996028;28;20069;-78
2022/04/11 05:27:00;;;;;;;13.82;11.30;;;-0.20;99.90;;;;;;4999926;28;20057;-78
2022/04/11 05:29:26;;;;;;;14.10;12.30;;;0.10;99.90;;;;;;5033627;28;20036;-78
2022/04/11 05:31:53;;;;;;;14.02;12.63;;;0.50;99.90;;;;;;5030525;28;20037;-77
2022/04/11 05:34:19;;;;;;;11.10;10.10;;;1.00;99.90;;;;;;5016467;28;20391;-78
2022/04/11 05:36:46;;;;;;;11.50;10.38;;;1.70;99.90;;;;;;5028046;28;20041;-78
2022/04/11 05:39:13;;;;;;;8.43;6.78;;;2.40;99.90;;;;;;5012089;28;20042;-79
2022/04/11 05:41:40;;;;;;;8.05;6.05;;;3.20;99.90;;;;;;5012740;28;20038;-78
2022/04/11 05:44:07;;;;;;;6.80;5.22;;;5.00;99.90;;;;;;5016018;28;20053;-78
2022/04/11 05:46:39;;;;;;;4.70;3.85;;;5.20;99.90;;;;;;5014895;28;20406;-78
2022/04/11 05:49:11;;;;;;;4.47;4.07;;;5.60;99.90;;;;;;5016246;28;20392;-78
2022/04/11 05:51:37;;;;;;;3.50;3.05;;;6.50;99.90;;;;;;4995481;28;20049;-81
2022/04/11 05:54:04;;;;;;;4.20;3.70;;;6.90;97.20;;;;;;5029327;28;20490;-78
2022/04/11 05:56:33;;;;;;;6.28;3.67;;;7.70;94.50;;;;;;5015067;28;20037;-79
2022/04/11 05:59:03;;;;;;;3.70;3.33;;;7.20;93.20;;;;;;5011442;28;20054;-78
2022/04/11 06:01:31;;;;;;;9.07;4.50;;;6.60;94.70;;;;;;5014297;28;20041;-78
2022/04/11 06:03:58;;;;;;;4.85;4.45;;;6.10;96.20;;;;;;5026791;28;20576;-78
2022/04/11 06:06:25;;;;;;;4.50;3.97;;;6.20;97.50;;;;;;5027018;28;20042;-79
2022/04/11 06:08:52;;;;;;;6.50;4.22;;;6.70;96.50;;;;;;5029273;28;20048;-76
2022/04/11 06:11:19;;;;;;;5.35;3.63;;;7.00;95.20;;;;;;4987550;28;20042;-76
2022/04/11 06:13:48;;;;;;;9.55;4.50;;;7.60;94.80;;;;;;5030391;28;20042;-79
2022/04/11 06:16:15;;;;;;;5.20;4.32;;;8.10;93.80;;;;;;5028552;28;20038;-78
2022/04/11 06:18:42;;;;;;;7.80;4.25;;;9.70;91.10;;;;;;5034015;28;20036;-78
2022/04/11 06:21:09;;;;;;;6.22;3.58;;;10.50;86.20;;;;;;5029545;28;20501;-78
2022/04/11 06:23:35;;;;;;;8.40;4.15;;;10.50;85.20;;;;;;5014160;28;20041;-77
2022/04/11 06:26:03;;;;;;;6.03;3.45;;;10.20;83.40;;;;;;5032172;28;20034;-76
2022/04/11 06:28:34;;;;;;;4.95;3.63;;;9.30;86.70;;;;;;5012919;28;20042;-77
2022/04/11 06:31:01;;;;;;;3.83;3.38;;;9.30;87.20;;;;;;5014313;28;20045;-76
2022/04/11 06:33:27;;;;;;;6.60;4.50;;;8.70;90.50;;;;;;5014637;28;20052;-76
2022/04/11 06:35:53;;;;;;;4.80;3.92;;;8.30;91.00;;;;;;5032408;28;20060;-77
2022/04/11 06:38:20;;;;;;;4.43;3.65;;;8.40;91.80;;;;;;5010863;28;20491;-77
2022/04/11 06:40:46;;;;;;;7.20;4.15;;;8.40;92.10;;;;;;5031918;28;20382;-78
2022/04/11 06:43:13;;;;;;;5.18;3.20;;;9.10;92.10;;;;;;5010131;28;20052;-77
2022/04/11 06:46:11;;;;;;;3.50;2.90;;;10.40;88.90;;;;;;5023207;28;20450;-77
2022/04/11 06:48:38;;;;;;;6.78;4.25;;;10.00;86.80;;;;;;5013145;28;20064;-78
2022/04/11 06:51:04;;;;;;;5.15;4.35;;;10.00;85.10;;;;;;5014743;28;20041;-78
2022/04/11 06:53:30;;;;;;;4.32;3.78;;;9.40;86.80;;;;;;5027579;28;20033;-77
2022/04/11 06:55:57;;;;;;;5.72;3.42;;;9.60;88.40;;;;;;5026050;28;20256;-77
2022/04/11 06:58:23;;;;;;;4.25;3.85;;;10.10;86.80;;;;;;5025063;28;20041;-78
2022/04/11 07:00:49;;;;;;;5.45;3.60;;;10.30;85.00;;;;;;5029688;28;20025;-77
2022/04/11 07:03:15;;;;;;;4.10;3.03;;;9.90;86.30;;;;;;5009470;28;20052;-77
2022/04/11 07:05:42;;;;;;;3.88;3.45;;;9.20;87.60;;;;;;5029073;28;20040;-77
2022/04/11 07:08:08;;;;;;;4.30;3.58;;;9.10;89.90;;;;;;5023812;28;20038;-78
2022/04/11 07:10:37;;;;;;;5.70;2.78;;;8.80;90.30;;;;;;5031653;28;20045;-78
2022/04/11 07:13:03;;;;;;;4.05;2.90;;;9.10;89.90;;;;;;5013767;28;20478;-78
2022/04/11 07:15:29;;;;;;;3.85;2.63;;;9.50;88.90;;;;;;5032381;28;20048;-77
2022/04/11 07:17:55;;;;;;;6.97;3.20;;;9.50;87.40;;;;;;5028143;28;20612;-78
2022/04/11 07:20:22;;;;;;;5.75;3.08;;;9.70;87.60;;;;;;5030188;28;20037;-78
2022/04/11 07:22:48;;;;;;;4.32;3.25;;;11.00;85.10;;;;;;5023505;28;20357;-78
2022/04/11 07:25:14;;;;;;;3.42;2.45;;;12.00;77.80;;;;;;5000473;28;20049;-79
2022/04/11 07:27:40;;;;;;;2.67;2.38;;;11.70;74.80;;;;;;5017365;28;20053;-77
2022/04/11 07:30:07;;;;;;;3.03;2.35;;;11.40;73.30;;;;;;5031422;28;20037;-77
2022/04/11 07:32:33;;;;;;;3.90;2.28;;;12.60;70.20;;;;;;5031776;28;20029;-81
2022/04/11 07:34:59;;;;;;;2.60;1.90;;;13.20;62.20;;;;;;5031849;28;20037;-80
2022/04/11 07:37:27;;;;;;;2.10;1.90;;;13.50;65.10;;;;;;5025680;28;20029;-80
2022/04/11 07:39:54;;;;;;;3.42;1.90;;;13.90;64.50;;;;;;5026805;28;20041;-82
2022/04/11 07:42:21;;;;;;;3.28;1.98;;;13.50;60.70;;;;;;5028675;28;20097;-80
2022/04/11 07:44:47;;;;;;;2.00;1.85;;;12.80;64.00;;;;;;5029326;28;20041;-79
2022/04/11 07:47:13;;;;;;;3.05;2.38;;;12.00;65.60;;;;;;5030296;28;20688;-81
2022/04/11 07:49:40;;;;;;;3.05;2.13;;;11.30;67.80;;;;;;5013786;28;20040;-80
2022/04/11 07:52:07;;;;;;;3.72;2.58;;;11.70;65.60;;;;;;5012094;28;20029;-81
2022/04/11 07:54:33;;;;;;;4.78;2.85;;;12.20;64.30;;;;;;5026046;28;20029;-81
2022/04/11 07:56:59;;;;;;;3.35;2.17;;;12.40;64.40;;;;;;5009902;28;20038;-80
2022/04/11 07:59:25;;;;;;;2.97;1.67;;;12.50;61.10;;;;;;5025804;28;20486;-80
2022/04/11 08:01:52;;;;;;;3.05;2.10;;;12.50;60.60;;;;;;5031372;28;20407;-81
2022/04/11 08:04:19;;;;;;;3.38;2.60;;;12.50;66.70;;;;;;5023935;28;20042;-81
2022/04/11 08:06:45;;;;;;;5.40;3.78;;;13.30;59.90;;;;;;5030214;28;20714;-82
2022/04/11 08:09:11;;;;;;;4.65;2.83;;;13.60;58.60;;;;;;5029619;28;20033;-81
2022/04/11 08:11:37;;;;;;;3.63;2.53;;;13.90;57.90;;;;;;5027366;28;20030;-81
2022/04/11 08:14:03;;;;;;;4.22;2.20;;;14.20;56.50;;;;;;5041525;28;20040;-80
2022/04/11 08:16:30;;;;;;;3.15;2.38;;;14.60;57.10;;;;;;5025467;28;20053;-81
2022/04/11 08:18:56;;;;;;;3.63;3.33;;;15.00;55.10;;;;;;5026756;28;20383;-81
2022/04/11 08:21:22;;;;;;;4.22;3.33;;;15.70;55.80;;;;;;5013675;28;20037;-81
2022/04/11 08:23:48;;;;;;;6.53;2.80;;;15.40;53.50;;;;;;5030484;28;20036;-81
2022/04/11 08:26:15;;;;;;;4.57;2.90;;;15.50;55.60;;;;;;5032465;28;20034;-81
2022/04/11 08:28:41;;;;;;;3.63;2.63;;;15.40;54.70;;;;;;5012188;28;20057;-81
2022/04/11 08:31:07;;;;;;;3.85;2.80;;;15.50;54.00;;;;;;5013466;28;20046;-81
2022/04/11 08:33:34;;;;;;;3.58;2.13;;;14.90;54.10;;;;;;5026550;28;20037;-81
2022/04/11 08:36:00;;;;;;;5.50;2.90;;;15.20;54.80;;;;;;5031132;28;20037;-81
2022/04/11 08:38:26;;;;;;;5.95;2.92;;;15.00;55.40;;;;;;5028138;28;20041;-81
2022/04/11 08:40:54;;;;;;;10.10;3.78;;;15.50;53.20;;;;;;5012706;28;20056;-81
2022/04/11 08:43:23;;;;;;;3.83;2.65;;;16.00;52.70;;;;;;5031922;28;20030;-82
2022/04/11 08:45:53;;;;;;;5.22;2.20;;;14.90;52.40;;;;;;5024839;28;20045;-82
2022/04/11 08:48:21;;;;;;;2.92;1.98;;;14.60;52.70;;;;;;5010363;28;20040;-82
2022/04/11 08:50:48;;;;;;;3.20;2.20;;;14.70;52.60;;;;;;5026391;28;20048;-82
2022/04/11 08:53:19;;;;;;;2.58;2.00;;;14.80;52.30;;;;;;5032373;28;20025;-82
2022/04/11 08:55:45;;;;;;;1.58;1.42;;;14.90;52.20;;;;;;5037134;28;20475;-81
2022/04/11 08:58:11;;;;;;;1.75;1.30;;;15.00;53.90;;;;;;5034323;28;20410;-82
2022/04/11 09:00:38;;;;;;;2.42;1.77;;;15.40;53.10;;;;;;5029792;28;20033;-81
2022/04/11 09:03:05;;;;;;;9.63;2.22;;;14.70;50.40;;;;;;5035538;28;20052;-81
2022/04/11 09:05:32;;;;;;;6.30;1.73;;;15.10;51.90;;;;;;5017907;28;20045;-82
2022/04/11 09:07:59;;;;;;;3.72;1.85;;;15.90;50.90;;;;;;5033396;28;20022;-82
2022/04/11 09:10:28;;;;;;;2.83;1.80;;;16.40;49.50;;;;;;5034573;28;20479;-82
2022/04/11 09:12:56;;;;;;;4.55;1.80;;;16.40;49.40;;;;;;5034480;28;20029;-82
2022/04/11 09:15:24;;;;;;;3.90;1.75;;;16.50;49.00;;;;;;5033079;28;20053;-81
2022/04/11 09:17:52;;;;;;;3.65;1.70;;;14.70;49.70;;;;;;5007860;28;20033;-78
2022/04/11 09:20:26;;;;;;;3.22;1.48;;;14.30;50.40;;;;;;5030224;28;20371;-82
2022/04/11 09:22:52;;;;;;;4.47;2.22;;;14.30;52.00;;;;;;5023903;28;20029;-80
2022/04/11 09:25:21;;;;;;;3.33;1.52;;;14.70;49.90;;;;;;5034805;28;20042;-80
2022/04/11 09:27:48;;;;;;;4.18;1.98;;;14.10;51.20;;;;;;5014248;28;20045;-79
2022/04/11 09:30:32;;;;;;;1.88;1.40;;;15.20;50.20;;;;;;5034636;28;20502;-78
2022/04/11 09:33:01;;;;;;;3.72;2.20;;;14.60;49.30;;;;;;5016139;28;20048;-80
2022/04/11 09:35:31;;;;;;;6.07;1.63;;;16.10;49.20;;;;;;5037473;28;20037;-79
2022/04/11 09:38:14;;;;;;;2.33;1.73;;;16.30;48.90;;;;;;5032854;28;20048;-79
2022/04/11 09:40:55;;;;;;;1.83;1.35;;;16.70;47.00;;;;;;5015076;28;20033;-81
2022/04/11 09:43:25;;;;;;;;;;;17.20;47.00;;;;;;5033764;28;20041;-80
2022/04/11 09:45:52;;;;;;;2.20;1.48;;;17.50;46.30;;;;;;5031634;28;19920;-80
2022/04/11 09:48:26;;;;;;;2.33;1.58;;;16.30;45.90;;;;;;5033330;28;20037;-80
2022/04/11 09:50:53;;;;;;;1.92;1.23;;;16.50;45.90;;;;;;5032368;28;20049;-78
2022/04/11 09:53:31;;;;;;;1.92;1.48;;;16.30;46.50;;;;;;5006325;28;20026;-81
2022/04/11 09:56:04;;;;;;;2.03;1.40;;;16.40;46.90;;;;;;5031757;28;20137;-79
2022/04/11 09:58:33;;;;;;;2.70;1.52;;;15.90;46.20;;;;;;5015382;28;20033;-78
2022/04/11 10:01:02;;;;;;;3.03;1.08;;;15.40;46.60;;;;;;5030735;28;20470;-78
2022/04/11 10:03:29;;;;;;;3.72;1.17;;;15.10;45.70;;;;;;5027359;28;20029;-79
2022/04/11 10:05:56;;;;;;;3.50;1.10;;;14.10;46.20;;;;;;5031431;28;20041;-79
2022/04/11 10:08:25;;;;;;;2.38;1.17;;;13.80;47.40;;;;;;5031410;28;20566;-79
2022/04/11 10:10:52;;;;;;;2.80;0.98;;;13.30;48.20;;;;;;5031161;28;20038;-77
2022/04/11 10:13:18;;;;;;;2.67;1.85;;;13.30;47.70;;;;;;5033367;28;20045;-77
2022/04/11 10:15:47;;;;;;;3.97;1.55;;;13.20;48.60;;;;;;5028870;28;20033;-78
2022/04/11 10:18:27;;;;;;;3.35;1.25;;;13.20;47.90;;;;;;5014641;28;20040;-77
2022/04/11 10:21:02;;;;;;;1.85;1.30;;;13.20;47.70;;;;;;5032662;28;20522;-77
2022/04/11 10:24:13;;;;;;;1.63;1.10;;;13.10;47.70;;;;;;5030033;28;20534;-77
2022/04/11 10:26:53;;;;;;;2.10;1.30;;;13.50;48.40;;;;;;4950453;29;20427;-84
2022/04/11 10:29:35;;;;;;;2.47;1.10;;;13.20;48.70;;;;;;4954893;29;20035;-79
2022/04/11 10:32:09;;;;;;;3.03;1.70;;;13.50;49.80;;;;;;4954661;29;20046;-78
2022/04/11 10:34:54;;;;;;;2.30;1.60;;;13.50;48.30;;;;;;4956748;29;20039;-78
2022/04/11 10:37:40;;;;;;;1.50;0.88;;;13.70;48.90;;;;;;4944567;29;20050;-77
2022/04/11 10:40:15;;;;;;;4.93;1.15;;;13.60;47.30;;;;;;4954092;28;20035;-78
2022/04/11 10:43:00;;;;;;;2.25;1.30;;;13.50;48.70;;;;;;4952039;29;20433;-77
2022/04/11 10:45:35;;;;;;;3.15;1.40;;;13.80;48.70;;;;;;4952651;29;20047;-78
2022/04/11 10:48:05;;;;;;;3.08;1.10;;;13.90;47.60;;;;;;4948499;29;20051;-78
2022/04/11 10:50:35;;;;;;;2.10;1.30;;;13.60;47.60;;;;;;4952884;29;20506;-78
2022/04/11 10:53:24;;;;;;;3.80;1.53;;;13.30;48.00;;;;;;4952313;29;20039;-76
2022/04/11 10:55:54;;;;;;;1.25;1.05;;;13.80;49.00;;;;;;4946894;28;20048;-77
2022/04/11 10:58:22;;;;;;;2.20;1.50;;;13.90;48.10;;;;;;5020007;28;20042;-76
2022/04/11 11:00:51;;;;;;;2.95;1.08;;;13.90;48.90;;;;;;5028187;28;20379;-76
2022/04/11 11:03:17;;;;;;;1.40;1.10;;;14.30;48.80;;;;;;5024587;28;20491;-78
2022/04/11 11:05:48;;;;;;;2.28;1.30;;;14.40;48.10;;;;;;5030650;28;20408;-77
2022/04/11 11:08:15;;;;;;;3.35;1.38;;;14.20;48.90;;;;;;5008998;28;20046;-76
2022/04/11 11:10:59;;;;;;;2.65;1.40;;;14.60;48.60;;;;;;5002551;28;20029;-77
2022/04/11 11:13:27;;;;;;;3.20;1.30;;;14.20;46.30;;;;;;5023260;28;20059;-77
2022/04/11 11:15:58;;;;;;;1.90;1.25;;;14.10;46.60;;;;;;5029610;28;20033;-79
2022/04/11 11:18:26;;;;;;;4.57;1.50;;;14.20;46.00;;;;;;5029872;28;20033;-78
2022/04/11 11:20:54;;;;;;;2.28;1.10;;;14.30;46.50;;;;;;5030691;28;20021;-78
2022/04/11 11:23:30;;;;;;;2.75;1.02;;;14.20;45.70;;;;;;5027156;28;20040;-77
2022/04/11 11:26:10;;;;;;;3.25;1.05;;;14.00;46.20;;;;;;5027729;28;20045;-76
2022/04/11 11:28:40;;;;;;;1.55;0.88;;;14.00;46.80;;;;;;5028898;28;20163;-77
2022/04/11 11:31:06;;;;;;;6.53;0.93;;;14.40;46.00;;;;;;5026127;28;20034;-77
2022/04/11 11:33:32;;;;;;;2.15;0.80;;;14.50;47.00;;;;;;5032195;28;20032;-77
2022/04/11 11:35:59;;;;;;;2.97;0.90;;;14.70;46.10;;;;;;5012848;28;20037;-77
2022/04/11 11:38:28;;;;;;;0.98;0.88;;;14.90;45.30;;;;;;5029168;28;20486;-76
2022/04/11 11:40:57;;;;;;;1.67;1.00;;;15.00;45.40;;;;;;5010984;28;20041;-76
2022/04/11 11:43:25;;;;;;;1.15;0.60;;;14.30;45.90;;;;;;5013271;28;20057;-76
2022/04/11 11:45:52;;;;;;;0.88;0.50;;;14.40;45.40;;;;;;5020181;28;20064;-75
2022/04/11 11:48:25;;;;;;;2.45;0.93;;;14.40;46.30;;;;;;5024269;28;20034;-75
2022/04/11 11:50:56;;;;;;;2.28;0.93;;;14.30;45.70;;;;;;5031584;28;20029;-77
2022/04/11 11:53:25;;;;;;;8.57;1.23;;;14.10;45.90;;;;;;5009630;28;20033;-76
2022/04/11 11:55:58;;;;;;;0.88;0.75;;;14.30;45.90;;;;;;5031578;28;20033;-80
2022/04/11 11:58:38;;;;;;;1.10;0.80;;;14.90;44.80;;;;;;5030982;28;20053;-78
2022/04/11 12:01:10;;;;;;;1.13;0.80;;;14.90;45.50;;;;;;5027955;28;20049;-76
2022/04/11 12:06:25;;;;;;;1.90;0.70;;;14.80;45.50;;;;;;5029344;28;20053;-75
2022/04/11 12:09:00;;;;;;;1.58;0.95;;;15.10;46.60;;;;;;5012653;28;20029;-78
2022/04/11 12:11:29;;;;;;;1.67;0.90;;;15.20;45.40;;;;;;5026221;28;20037;-76
2022/04/11 12:14:08;;;;;;;1.48;0.90;;;15.10;45.60;;;;;;5026352;28;20456;-78
2022/04/11 12:16:38;;;;;;;1.23;0.88;;;15.10;45.50;;;;;;5018273;28;20041;-75
2022/04/11 12:19:06;;;;;;;2.08;1.10;;;15.30;45.30;;;;;;5030979;28;20025;-78
2022/04/11 12:21:37;;;;;;;1.55;0.98;;;15.60;45.10;;;;;;5026606;28;20041;-77
2022/04/11 12:24:06;;;;;;;1.85;0.70;;;15.10;45.70;;;;;;5036190;28;20037;-76
2022/04/11 12:26:35;;;;;;;2.40;0.85;;;15.40;45.60;;;;;;5029179;28;20250;-75
2022/04/11 12:29:15;;;;;;;3.08;1.10;;;15.50;44.10;;;;;;5034306;28;20117;-75
2022/04/11 12:32:03;;;;;;;1.55;1.20;;;15.30;44.00;;;;;;5035666;28;20501;-85
2022/04/11 12:34:38;;;;;;;0.52;0.47;;;15.10;45.50;;;;;;5016987;28;20041;-75
2022/04/11 12:37:07;;;;;;;2.13;0.98;;;15.30;44.60;;;;;;5019301;28;20029;-75
2022/04/11 12:39:51;;;;;;;1.42;0.88;;;15.20;44.70;;;;;;5039950;28;20033;-75
2022/04/11 12:42:22;;;;;;;1.52;0.80;;;15.50;45.00;;;;;;5016735;28;20471;-75
2022/04/11 12:44:49;;;;;;;1.23;0.77;;;15.40;44.40;;;;;;5034010;28;20038;-75
2022/04/11 12:47:15;;;;;;;1.08;0.73;;;15.40;44.70;;;;;;5024304;28;20029;-78
2022/04/11 12:49:51;;;;;;;2.35;1.17;;;15.60;44.40;;;;;;5030521;28;20029;-81
2022/04/11 12:52:20;;;;;;;3.08;1.02;;;15.50;42.90;;;;;;5017709;28;20041;-75
2022/04/11 12:54:48;;;;;;;1.90;1.15;;;15.80;44.20;;;;;;5039681;28;20029;-75